PAA115 LFPO-KMIA
Flight info
| Callsign | PAA115 |
|---|---|
| Flight time | N/A |
| Altitude | 30000 |
| Route | LGL UN502 ARGED DCT SENLO DCT JSY DCT LIZAD DCT LESLU DCT MALOT/M083F300 DCT 5420N DCT 5430N DCT 5440N DCT 5350N DCT RIKAL/N0489F300 N572A TOPPS/N0483F360 DCT BEEKN Q97 KALDA DCT BGBRD Q101 SKARP Y313 HOAGG DCT ZBV FOWEE2 |
| Aircraft | L101/H-SDFGHIRWXY/S |
Departure
| Time | 2026-05-04 12:38 |
|---|---|
| Airport | Paris-Orly Airport (LFPO) |
Arrival
| Time | N/A |
|---|---|
| Airport | Miami International Airport (KMIA) |
| Time | Latitude | Longitude | Altitude | Speed | Heading |
|---|---|---|---|---|---|
| 2026-05-04 11:17 | 48.72609 | 2.36270 | 298 ft | 0 kts | 344° |
| 2026-05-04 12:27 | 48.72603 | 2.36272 | 292 ft | 3 kts | 344° |
| 2026-05-04 12:27 | 48.72577 | 2.36284 | 292 ft | 4 kts | 344° |
| 2026-05-04 12:28 | 48.72555 | 2.36293 | 291 ft | 3 kts | 339° |
| 2026-05-04 12:28 | 48.72534 | 2.36313 | 295 ft | 3 kts | 300° |
| 2026-05-04 12:28 | 48.72529 | 2.36349 | 296 ft | 3 kts | 256° |
| 2026-05-04 12:28 | 48.72529 | 2.36354 | 291 ft | 9 kts | 255° |
| 2026-05-04 12:31 | 48.72529 | 2.36353 | 292 ft | 0 kts | 255° |
| 2026-05-04 12:32 | 48.72526 | 2.36338 | 296 ft | 3 kts | 255° |
| 2026-05-04 12:32 | 48.72504 | 2.36248 | 298 ft | 6 kts | 231° |
| 2026-05-04 12:32 | 48.72469 | 2.36228 | 297 ft | 5 kts | 176° |
| 2026-05-04 12:33 | 48.72432 | 2.36219 | 297 ft | 5 kts | 208° |
| 2026-05-04 12:33 | 48.72413 | 2.36176 | 292 ft | 5 kts | 249° |
| 2026-05-04 12:33 | 48.72404 | 2.36123 | 294 ft | 6 kts | 255° |
| 2026-05-04 12:33 | 48.72392 | 2.36061 | 294 ft | 6 kts | 253° |
| 2026-05-04 12:34 | 48.72378 | 2.35989 | 297 ft | 8 kts | 253° |
| 2026-05-04 12:34 | 48.72362 | 2.35904 | 296 ft | 9 kts | 254° |
| 2026-05-04 12:34 | 48.72345 | 2.35810 | 296 ft | 10 kts | 254° |
| 2026-05-04 12:34 | 48.72326 | 2.35705 | 295 ft | 11 kts | 255° |
| 2026-05-04 12:35 | 48.72285 | 2.35614 | 298 ft | 11 kts | 212° |
| 2026-05-04 12:35 | 48.72211 | 2.35607 | 296 ft | 11 kts | 166° |
| 2026-05-04 12:35 | 48.72135 | 2.35637 | 296 ft | 11 kts | 162° |
| 2026-05-04 12:35 | 48.72066 | 2.35694 | 298 ft | 11 kts | 137° |
| 2026-05-04 12:36 | 48.72017 | 2.35784 | 298 ft | 11 kts | 121° |
| 2026-05-04 12:36 | 48.71980 | 2.35883 | 298 ft | 10 kts | 120° |
| 2026-05-04 12:36 | 48.71964 | 2.35980 | 297 ft | 9 kts | 79° |
| 2026-05-04 12:36 | 48.71969 | 2.36007 | 294 ft | 0 kts | 76° |
| 2026-05-04 12:37 | 48.71969 | 2.36010 | 293 ft | 2 kts | 76° |
| 2026-05-04 12:37 | 48.72017 | 2.36277 | 297 ft | 59 kts | 74° |
| 2026-05-04 12:37 | 48.72184 | 2.37198 | 291 ft | 121 kts | 72° |
| 2026-05-04 12:37 | 48.72458 | 2.38686 | 306 ft | 169 kts | 75° |
| 2026-05-04 12:38 | 48.72759 | 2.40390 | 949 ft | 168 kts | 75° |
| 2026-05-04 12:38 | 48.73057 | 2.42143 | 1520 ft | 179 kts | 75° |
| 2026-05-04 12:38 | 48.73461 | 2.44072 | 1882 ft | 206 kts | 71° |
| 2026-05-04 12:38 | 48.73974 | 2.46184 | 2604 ft | 220 kts | 71° |
| 2026-05-04 12:39 | 48.74539 | 2.48497 | 3024 ft | 248 kts | 70° |
| 2026-05-04 12:39 | 48.74992 | 2.51061 | 3051 ft | 256 kts | 86° |
| 2026-05-04 12:39 | 48.74676 | 2.53749 | 3060 ft | 273 kts | 116° |
| 2026-05-04 12:39 | 48.73527 | 2.56006 | 3831 ft | 268 kts | 143° |
| 2026-05-04 12:40 | 48.71922 | 2.57192 | 5074 ft | 252 kts | 168° |
| 2026-05-04 12:40 | 48.70179 | 2.57199 | 5911 ft | 258 kts | 193° |
| 2026-05-04 12:40 | 48.68480 | 2.56022 | 6226 ft | 279 kts | 218° |
| 2026-05-04 12:40 | 48.67153 | 2.53879 | 6997 ft | 276 kts | 234° |
| 2026-05-04 12:41 | 48.66090 | 2.51441 | 7630 ft | 285 kts | 238° |